sensor_id;sensor_type;location;lat;lon;timestamp;temperature;humidity
46458;DHT22;32155;54.076;12.092;2023-05-02T00:00:48;9.70;99.90
46458;DHT22;32155;54.076;12.092;2023-05-02T00:03:14;9.60;99.90
46458;DHT22;32155;54.076;12.092;2023-05-02T00:05:41;9.70;99.90
46458;DHT22;32155;54.076;12.092;2023-05-02T00:08:09;9.80;99.90
46458;DHT22;32155;54.076;12.092;2023-05-02T00:10:37;9.80;99.90
46458;DHT22;32155;54.076;12.092;2023-05-02T00:13:02;9.80;99.90
46458;DHT22;32155;54.076;12.092;2023-05-02T00:15:28;9.80;99.90
46458;DHT22;32155;54.076;12.092;2023-05-02T00:17:54;9.80;99.90
46458;DHT22;32155;54.076;12.092;2023-05-02T00:20:20;9.90;99.90
46458;DHT22;32155;54.076;12.092;2023-05-02T00:22:45;9.90;99.90
46458;DHT22;32155;54.076;12.092;2023-05-02T00:25:13;10.00;99.90
46458;DHT22;32155;54.076;12.092;2023-05-02T00:27:42;9.90;99.90
46458;DHT22;32155;54.076;12.092;2023-05-02T00:30:08;9.90;99.90
46458;DHT22;32155;54.076;12.092;2023-05-02T00:32:34;9.80;99.90
46458;DHT22;32155;54.076;12.092;2023-05-02T00:35:02;9.80;99.90
46458;DHT22;32155;54.076;12.092;2023-05-02T00:37:28;9.80;99.90
46458;DHT22;32155;54.076;12.092;2023-05-02T00:39:54;9.80;99.90
46458;DHT22;32155;54.076;12.092;2023-05-02T00:42:19;9.90;99.90
46458;DHT22;32155;54.076;12.092;2023-05-02T00:44:45;9.90;99.90
46458;DHT22;32155;54.076;12.092;2023-05-02T00:47:14;9.90;99.90
46458;DHT22;32155;54.076;12.092;2023-05-02T00:49:40;10.00;99.90
46458;DHT22;32155;54.076;12.092;2023-05-02T00:52:07;10.00;99.90
46458;DHT22;32155;54.076;12.092;2023-05-02T00:54:33;10.00;99.90
46458;DHT22;32155;54.076;12.092;2023-05-02T00:56:58;10.00;99.90
46458;DHT22;32155;54.076;12.092;2023-05-02T00:59:24;9.80;99.90
46458;DHT22;32155;54.076;12.092;2023-05-02T01:12:44;9.70;99.90
46458;DHT22;32155;54.076;12.092;2023-05-02T01:15:15;9.70;99.90
46458;DHT22;32155;54.076;12.092;2023-05-02T01:17:43;9.70;99.90
46458;DHT22;32155;54.076;12.092;2023-05-02T01:20:13;9.70;99.90
46458;DHT22;32155;54.076;12.092;2023-05-02T01:22:40;9.70;99.90
46458;DHT22;32155;54.076;12.092;2023-05-02T01:30:51;9.60;99.90
46458;DHT22;32155;54.076;12.092;2023-05-02T01:33:20;9.60;99.90
46458;DHT22;32155;54.076;12.092;2023-05-02T01:35:49;9.60;99.90
46458;DHT22;32155;54.076;12.092;2023-05-02T01:38:17;9.60;99.90
46458;DHT22;32155;54.076;12.092;2023-05-02T01:40:44;9.60;99.90
46458;DHT22;32155;54.076;12.092;2023-05-02T01:43:17;9.50;99.90
46458;DHT22;32155;54.076;12.092;2023-05-02T01:45:54;9.60;99.90
46458;DHT22;32155;54.076;12.092;2023-05-02T01:48:26;9.50;99.90
46458;DHT22;32155;54.076;12.092;2023-05-02T01:50:55;9.50;99.90
46458;DHT22;32155;54.076;12.092;2023-05-02T01:53:23;9.50;99.90
46458;DHT22;32155;54.076;12.092;2023-05-02T01:55:51;9.50;99.90
46458;DHT22;32155;54.076;12.092;2023-05-02T01:58:20;9.40;99.90
46458;DHT22;32155;54.076;12.092;2023-05-02T02:00:46;9.30;99.90
46458;DHT22;32155;54.076;12.092;2023-05-02T02:03:16;9.30;99.90
46458;DHT22;32155;54.076;12.092;2023-05-02T02:05:42;9.20;99.90
46458;DHT22;32155;54.076;12.092;2023-05-02T02:08:08;9.20;99.90
46458;DHT22;32155;54.076;12.092;2023-05-02T02:10:40;9.30;99.90
46458;DHT22;32155;54.076;12.092;2023-05-02T02:13:18;9.50;99.90
46458;DHT22;32155;54.076;12.092;2023-05-02T02:15:47;9.70;99.90
46458;DHT22;32155;54.076;12.092;2023-05-02T02:18:20;9.90;99.90
46458;DHT22;32155;54.076;12.092;2023-05-02T02:20:46;9.90;99.90
46458;DHT22;32155;54.076;12.092;2023-05-02T02:23:14;10.00;99.90
46458;DHT22;32155;54.076;12.092;2023-05-02T02:25:41;10.10;99.90
46458;DHT22;32155;54.076;12.092;2023-05-02T02:28:09;10.20;99.90
46458;DHT22;32155;54.076;12.092;2023-05-02T02:30:35;10.20;99.90
46458;DHT22;32155;54.076;12.092;2023-05-02T02:33:01;10.20;99.90
46458;DHT22;32155;54.076;12.092;2023-05-02T02:35:32;10.30;99.90
46458;DHT22;32155;54.076;12.092;2023-05-02T02:38:22;10.40;99.90
46458;DHT22;32155;54.076;12.092;2023-05-02T02:40:59;10.40;99.90
46458;DHT22;32155;54.076;12.092;2023-05-02T02:43:33;10.40;99.90
46458;DHT22;32155;54.076;12.092;2023-05-02T02:46:33;10.40;99.90
46458;DHT22;32155;54.076;12.092;2023-05-02T02:49:31;10.50;99.90
46458;DHT22;32155;54.076;12.092;2023-05-02T02:52:06;10.50;99.90
46458;DHT22;32155;54.076;12.092;2023-05-02T02:54:38;10.60;99.90
46458;DHT22;32155;54.076;12.092;2023-05-02T03:00:17;10.60;99.90
46458;DHT22;32155;54.076;12.092;2023-05-02T03:02:46;10.50;99.90
46458;DHT22;32155;54.076;12.092;2023-05-02T03:05:12;10.60;99.90
46458;DHT22;32155;54.076;12.092;2023-05-02T03:07:39;10.60;99.90
46458;DHT22;32155;54.076;12.092;2023-05-02T03:10:05;10.60;99.90
46458;DHT22;32155;54.076;12.092;2023-05-02T03:12:31;10.60;99.90
46458;DHT22;32155;54.076;12.092;2023-05-02T03:15:13;10.70;99.90
46458;DHT22;32155;54.076;12.092;2023-05-02T03:17:39;10.80;99.90
46458;DHT22;32155;54.076;12.092;2023-05-02T03:20:05;10.80;99.90
46458;DHT22;32155;54.076;12.092;2023-05-02T03:22:31;10.80;99.90
46458;DHT22;32155;54.076;12.092;2023-05-02T03:24:58;10.80;99.90
46458;DHT22;32155;54.076;12.092;2023-05-02T03:27:24;10.80;99.90
46458;DHT22;32155;54.076;12.092;2023-05-02T03:29:52;10.80;99.90
46458;DHT22;32155;54.076;12.092;2023-05-02T03:32:23;10.80;99.90
46458;DHT22;32155;54.076;12.092;2023-05-02T03:34:51;10.90;99.90
46458;DHT22;32155;54.076;12.092;2023-05-02T03:37:16;10.80;99.90
46458;DHT22;32155;54.076;12.092;2023-05-02T03:39:44;10.70;99.90
46458;DHT22;32155;54.076;12.092;2023-05-02T03:42:10;10.60;99.90
46458;DHT22;32155;54.076;12.092;2023-05-02T03:44:37;10.40;99.90
46458;DHT22;32155;54.076;12.092;2023-05-02T03:47:08;10.20;99.90
46458;DHT22;32155;54.076;12.092;2023-05-02T03:49:34;10.10;99.90
46458;DHT22;32155;54.076;12.092;2023-05-02T03:52:00;10.00;99.90
46458;DHT22;32155;54.076;12.092;2023-05-02T03:54:26;10.00;99.90
46458;DHT22;32155;54.076;12.092;2023-05-02T03:56:54;9.90;99.90
46458;DHT22;32155;54.076;12.092;2023-05-02T03:59:21;9.80;99.90
46458;DHT22;32155;54.076;12.092;2023-05-02T04:01:50;9.90;99.90
46458;DHT22;32155;54.076;12.092;2023-05-02T04:04:18;9.70;99.90
46458;DHT22;32155;54.076;12.092;2023-05-02T04:06:43;9.50;99.90
46458;DHT22;32155;54.076;12.092;2023-05-02T04:09:09;9.40;99.90
46458;DHT22;32155;54.076;12.092;2023-05-02T04:11:35;9.30;99.90
46458;DHT22;32155;54.076;12.092;2023-05-02T04:14:03;9.30;99.90
46458;DHT22;32155;54.076;12.092;2023-05-02T04:16:29;9.30;99.90
46458;DHT22;32155;54.076;12.092;2023-05-02T04:18:55;9.20;99.90
46458;DHT22;32155;54.076;12.092;2023-05-02T04:21:21;9.20;99.90
46458;DHT22;32155;54.076;12.092;2023-05-02T04:23:46;9.20;99.90
46458;DHT22;32155;54.076;12.092;2023-05-02T04:26:14;9.20;99.90
46458;DHT22;32155;54.076;12.092;2023-05-02T04:28:40;9.20;99.90
46458;DHT22;32155;54.076;12.092;2023-05-02T04:31:06;9.20;99.90
46458;DHT22;32155;54.076;12.092;2023-05-02T04:33:32;9.20;99.90
46458;DHT22;32155;54.076;12.092;2023-05-02T04:35:57;9.20;99.90
46458;DHT22;32155;54.076;12.092;2023-05-02T04:38:23;9.10;99.90
46458;DHT22;32155;54.076;12.092;2023-05-02T04:40:54;9.20;99.90
46458;DHT22;32155;54.076;12.092;2023-05-02T04:43:22;9.10;99.90
46458;DHT22;32155;54.076;12.092;2023-05-02T04:45:48;9.10;99.90
46458;DHT22;32155;54.076;12.092;2023-05-02T04:48:18;9.10;99.90
46458;DHT22;32155;54.076;12.092;2023-05-02T04:50:44;9.10;99.90
46458;DHT22;32155;54.076;12.092;2023-05-02T04:53:13;9.20;99.90
46458;DHT22;32155;54.076;12.092;2023-05-02T04:55:38;9.00;99.90
46458;DHT22;32155;54.076;12.092;2023-05-02T04:58:09;9.00;99.90
46458;DHT22;32155;54.076;12.092;2023-05-02T05:00:34;9.00;99.90
46458;DHT22;32155;54.076;12.092;2023-05-02T05:03:00;9.00;99.90
46458;DHT22;32155;54.076;12.092;2023-05-02T05:05:35;9.00;99.90
46458;DHT22;32155;54.076;12.092;2023-05-02T05:08:10;9.10;99.90
46458;DHT22;32155;54.076;12.092;2023-05-02T05:10:36;9.30;99.90
46458;DHT22;32155;54.076;12.092;2023-05-02T05:13:02;9.30;99.90
46458;DHT22;32155;54.076;12.092;2023-05-02T05:15:30;9.30;99.90
46458;DHT22;32155;54.076;12.092;2023-05-02T05:17:56;9.30;99.90
46458;DHT22;32155;54.076;12.092;2023-05-02T05:20:22;9.40;99.90
46458;DHT22;32155;54.076;12.092;2023-05-02T05:22:53;9.40;99.90
46458;DHT22;32155;54.076;12.092;2023-05-02T05:25:19;9.50;99.90
46458;DHT22;32155;54.076;12.092;2023-05-02T05:27:44;9.70;99.90
46458;DHT22;32155;54.076;12.092;2023-05-02T05:30:11;9.70;99.90
46458;DHT22;32155;54.076;12.092;2023-05-02T05:32:41;9.80;99.90
46458;DHT22;32155;54.076;12.092;2023-05-02T05:35:06;10.00;99.90
46458;DHT22;32155;54.076;12.092;2023-05-02T05:37:34;9.90;99.90
46458;DHT22;32155;54.076;12.092;2023-05-02T05:40:07;9.70;99.90
46458;DHT22;32155;54.076;12.092;2023-05-02T05:42:35;9.60;99.90
46458;DHT22;32155;54.076;12.092;2023-05-02T05:45:00;9.70;99.90
46458;DHT22;32155;54.076;12.092;2023-05-02T05:47:26;10.10;99.90
46458;DHT22;32155;54.076;12.092;2023-05-02T05:49:55;10.50;99.90
46458;DHT22;32155;54.076;12.092;2023-05-02T05:52:24;10.80;99.90
46458;DHT22;32155;54.076;12.092;2023-05-02T05:54:55;11.30;99.90
46458;DHT22;32155;54.076;12.092;2023-05-02T05:57:21;12.20;99.90
46458;DHT22;32155;54.076;12.092;2023-05-02T05:59:48;12.10;99.90
46458;DHT22;32155;54.076;12.092;2023-05-02T06:02:13;11.80;99.90
46458;DHT22;32155;54.076;12.092;2023-05-02T06:04:39;12.10;99.90
46458;DHT22;32155;54.076;12.092;2023-05-02T06:07:07;11.80;99.90
46458;DHT22;32155;54.076;12.092;2023-05-02T06:09:33;11.80;99.90
46458;DHT22;32155;54.076;12.092;2023-05-02T06:12:00;11.60;99.90
46458;DHT22;32155;54.076;12.092;2023-05-02T06:14:29;11.40;99.90
46458;DHT22;32155;54.076;12.092;2023-05-02T06:17:01;11.90;99.90
46458;DHT22;32155;54.076;12.092;2023-05-02T06:19:32;11.50;99.90
46458;DHT22;32155;54.076;12.092;2023-05-02T06:21:57;11.90;99.90
46458;DHT22;32155;54.076;12.092;2023-05-02T06:24:23;12.30;99.90
46458;DHT22;32155;54.076;12.092;2023-05-02T06:26:51;12.70;99.90
46458;DHT22;32155;54.076;12.092;2023-05-02T06:29:18;13.20;99.90
46458;DHT22;32155;54.076;12.092;2023-05-02T06:31:44;13.40;99.90
46458;DHT22;32155;54.076;12.092;2023-05-02T06:34:10;13.60;99.90
46458;DHT22;32155;54.076;12.092;2023-05-02T06:36:35;14.40;99.90
46458;DHT22;32155;54.076;12.092;2023-05-02T06:39:01;15.20;99.90
46458;DHT22;32155;54.076;12.092;2023-05-02T06:41:27;15.30;99.90
46458;DHT22;32155;54.076;12.092;2023-05-02T06:43:52;14.70;99.90
46458;DHT22;32155;54.076;12.092;2023-05-02T06:46:20;14.10;99.90
46458;DHT22;32155;54.076;12.092;2023-05-02T06:48:46;13.90;99.90
46458;DHT22;32155;54.076;12.092;2023-05-02T06:51:13;13.60;99.90
46458;DHT22;32155;54.076;12.092;2023-05-02T06:53:39;13.90;99.90
46458;DHT22;32155;54.076;12.092;2023-05-02T06:56:05;14.00;99.90
46458;DHT22;32155;54.076;12.092;2023-05-02T06:58:30;14.90;99.90
46458;DHT22;32155;54.076;12.092;2023-05-02T07:00:56;15.60;99.90
46458;DHT22;32155;54.076;12.092;2023-05-02T07:03:21;15.30;99.90
46458;DHT22;32155;54.076;12.092;2023-05-02T07:05:47;14.30;99.90
46458;DHT22;32155;54.076;12.092;2023-05-02T07:08:12;13.10;99.90
46458;DHT22;32155;54.076;12.092;2023-05-02T07:10:41;13.80;99.90
46458;DHT22;32155;54.076;12.092;2023-05-02T07:13:09;15.00;99.90
46458;DHT22;32155;54.076;12.092;2023-05-02T07:15:35;14.30;99.90
46458;DHT22;32155;54.076;12.092;2023-05-02T07:18:00;13.40;99.90
46458;DHT22;32155;54.076;12.092;2023-05-02T07:20:26;13.90;99.90
46458;DHT22;32155;54.076;12.092;2023-05-02T07:22:51;15.30;99.90
46458;DHT22;32155;54.076;12.092;2023-05-02T07:25:20;15.00;99.90
46458;DHT22;32155;54.076;12.092;2023-05-02T07:27:46;16.00;99.90
46458;DHT22;32155;54.076;12.092;2023-05-02T07:49:59;20.90;94.30
46458;DHT22;32155;54.076;12.092;2023-05-02T07:59:33;21.30;90.80
46458;DHT22;32155;54.076;12.092;2023-05-02T08:11:34;16.80;96.50
46458;DHT22;32155;54.076;12.092;2023-05-02T08:18:19;16.60;96.90
46458;DHT22;32155;54.076;12.092;2023-05-02T08:21:06;19.60;93.70
46458;DHT22;32155;54.076;12.092;2023-05-02T08:24:34;19.90;90.60
46458;DHT22;32155;54.076;12.092;2023-05-02T08:31:07;22.30;80.80
46458;DHT22;32155;54.076;12.092;2023-05-02T08:33:59;20.80;82.50
46458;DHT22;32155;54.076;12.092;2023-05-02T08:36:31;20.50;80.80
46458;DHT22;32155;54.076;12.092;2023-05-02T08:39:07;19.50;81.90
46458;DHT22;32155;54.076;12.092;2023-05-02T08:41:36;19.10;84.90
46458;DHT22;32155;54.076;12.092;2023-05-02T08:44:05;20.10;85.70
46458;DHT22;32155;54.076;12.092;2023-05-02T08:53:18;21.70;76.40
46458;DHT22;32155;54.076;12.092;2023-05-02T08:55:53;20.70;81.10
46458;DHT22;32155;54.076;12.092;2023-05-02T08:58:25;19.10;83.10
46458;DHT22;32155;54.076;12.092;2023-05-02T09:00:56;18.90;83.30
46458;DHT22;32155;54.076;12.092;2023-05-02T09:03:34;18.80;86.60
46458;DHT22;32155;54.076;12.092;2023-05-02T09:09:22;20.50;80.40
46458;DHT22;32155;54.076;12.092;2023-05-02T09:12:15;21.50;79.90
46458;DHT22;32155;54.076;12.092;2023-05-02T09:14:49;23.70;74.90
46458;DHT22;32155;54.076;12.092;2023-05-02T09:24:13;21.60;71.40
46458;DHT22;32155;54.076;12.092;2023-05-02T09:37:34;20.10;75.20
46458;DHT22;32155;54.076;12.092;2023-05-02T09:44:27;18.20;78.00
46458;DHT22;32155;54.076;12.092;2023-05-02T09:58:26;24.40;67.80
46458;DHT22;32155;54.076;12.092;2023-05-02T10:27:03;17.90;82.40
46458;DHT22;32155;54.076;12.092;2023-05-02T10:30:25;18.60;80.70
46458;DHT22;32155;54.076;12.092;2023-05-02T10:33:12;18.70;81.60
46458;DHT22;32155;54.076;12.092;2023-05-02T10:39:24;19.20;80.10
46458;DHT22;32155;54.076;12.092;2023-05-02T10:45:52;21.20;76.10
46458;DHT22;32155;54.076;12.092;2023-05-02T10:59:30;23.20;67.00
46458;DHT22;32155;54.076;12.092;2023-05-02T11:02:46;24.80;66.90
46458;DHT22;32155;54.076;12.092;2023-05-02T11:06:05;27.50;59.90
46458;DHT22;32155;54.076;12.092;2023-05-02T11:12:59;26.40;58.70
46458;DHT22;32155;54.076;12.092;2023-05-02T11:29:58;25.20;57.70
46458;DHT22;32155;54.076;12.092;2023-05-02T11:35:41;26.00;55.90
46458;DHT22;32155;54.076;12.092;2023-05-02T11:45:08;27.90;54.00
46458;DHT22;32155;54.076;12.092;2023-05-02T11:47:52;28.40;52.40
46458;DHT22;32155;54.076;12.092;2023-05-02T12:00:29;26.00;55.70
46458;DHT22;32155;54.076;12.092;2023-05-02T12:07:01;26.70;53.70
46458;DHT22;32155;54.076;12.092;2023-05-02T12:13:35;25.40;53.70
46458;DHT22;32155;54.076;12.092;2023-05-02T12:19:53;28.30;51.90
46458;DHT22;32155;54.076;12.092;2023-05-02T12:22:34;28.90;49.60
46458;DHT22;32155;54.076;12.092;2023-05-02T12:25:21;29.20;49.30
46458;DHT22;32155;54.076;12.092;2023-05-02T12:35:33;30.30;48.10
46458;DHT22;32155;54.076;12.092;2023-05-02T12:38:18;30.40;47.10
46458;DHT22;32155;54.076;12.092;2023-05-02T12:40:50;29.40;46.50
46458;DHT22;32155;54.076;12.092;2023-05-02T12:43:16;28.80;46.90
46458;DHT22;32155;54.076;12.092;2023-05-02T12:45:45;28.60;47.60
46458;DHT22;32155;54.076;12.092;2023-05-02T12:48:32;28.30;47.30
46458;DHT22;32155;54.076;12.092;2023-05-02T12:51:27;27.90;47.90
46458;DHT22;32155;54.076;12.092;2023-05-02T12:54:31;27.20;48.50
46458;DHT22;32155;54.076;12.092;2023-05-02T12:57:31;27.40;48.90
46458;DHT22;32155;54.076;12.092;2023-05-02T13:01:20;27.50;48.20
46458;DHT22;32155;54.076;12.092;2023-05-02T13:07:55;26.50;50.30
46458;DHT22;32155;54.076;12.092;2023-05-02T13:13:54;22.90;52.90
46458;DHT22;32155;54.076;12.092;2023-05-02T13:16:23;21.90;55.10
46458;DHT22;32155;54.076;12.092;2023-05-02T13:18:50;19.60;58.30
46458;DHT22;32155;54.076;12.092;2023-05-02T13:21:19;18.40;60.30
46458;DHT22;32155;54.076;12.092;2023-05-02T13:23:48;17.30;62.80
46458;DHT22;32155;54.076;12.092;2023-05-02T13:26:28;16.60;64.20
46458;DHT22;32155;54.076;12.092;2023-05-02T13:29:15;16.50;66.50
46458;DHT22;32155;54.076;12.092;2023-05-02T13:31:44;16.70;65.70
46458;DHT22;32155;54.076;12.092;2023-05-02T13:34:15;16.40;65.70
46458;DHT22;32155;54.076;12.092;2023-05-02T13:37:18;15.50;67.20
46458;DHT22;32155;54.076;12.092;2023-05-02T13:39:56;15.60;68.70
46458;DHT22;32155;54.076;12.092;2023-05-02T13:42:22;15.70;68.60
46458;DHT22;32155;54.076;12.092;2023-05-02T13:44:51;15.70;69.80
46458;DHT22;32155;54.076;12.092;2023-05-02T13:47:20;16.10;71.10
46458;DHT22;32155;54.076;12.092;2023-05-02T13:49:51;16.00;69.60
46458;DHT22;32155;54.076;12.092;2023-05-02T13:52:23;16.00;70.40
46458;DHT22;32155;54.076;12.092;2023-05-02T13:55:01;15.90;70.10
46458;DHT22;32155;54.076;12.092;2023-05-02T13:57:47;15.90;69.90
46458;DHT22;32155;54.076;12.092;2023-05-02T14:00:34;16.00;70.40
46458;DHT22;32155;54.076;12.092;2023-05-02T14:03:07;16.60;70.40
46458;DHT22;32155;54.076;12.092;2023-05-02T14:05:39;17.50;66.40
46458;DHT22;32155;54.076;12.092;2023-05-02T14:08:15;18.30;65.20
46458;DHT22;32155;54.076;12.092;2023-05-02T14:10:53;18.90;63.50
46458;DHT22;32155;54.076;12.092;2023-05-02T14:13:19;19.40;62.30
46458;DHT22;32155;54.076;12.092;2023-05-02T14:16:10;20.00;60.50
46458;DHT22;32155;54.076;12.092;2023-05-02T14:18:37;20.80;59.60
46458;DHT22;32155;54.076;12.092;2023-05-02T14:21:07;21.20;59.00
46458;DHT22;32155;54.076;12.092;2023-05-02T14:23:48;21.70;59.30
46458;DHT22;32155;54.076;12.092;2023-05-02T14:26:33;22.20;58.60
46458;DHT22;32155;54.076;12.092;2023-05-02T14:28:59;22.30;57.50
46458;DHT22;32155;54.076;12.092;2023-05-02T14:31:46;21.50;58.30
46458;DHT22;32155;54.076;12.092;2023-05-02T14:34:14;19.60;61.10
46458;DHT22;32155;54.076;12.092;2023-05-02T14:36:39;18.20;64.40
46458;DHT22;32155;54.076;12.092;2023-05-02T14:39:07;16.80;66.90
46458;DHT22;32155;54.076;12.092;2023-05-02T14:41:33;16.30;68.30
46458;DHT22;32155;54.076;12.092;2023-05-02T14:46:28;15.90;68.20
46458;DHT22;32155;54.076;12.092;2023-05-02T14:48:56;15.60;68.40
46458;DHT22;32155;54.076;12.092;2023-05-02T14:51:27;15.30;70.40
46458;DHT22;32155;54.076;12.092;2023-05-02T14:53:53;15.20;71.80
46458;DHT22;32155;54.076;12.092;2023-05-02T14:56:20;15.30;72.40
46458;DHT22;32155;54.076;12.092;2023-05-02T14:58:48;15.30;72.20
46458;DHT22;32155;54.076;12.092;2023-05-02T15:01:18;15.10;72.50
46458;DHT22;32155;54.076;12.092;2023-05-02T15:03:45;14.90;73.20
46458;DHT22;32155;54.076;12.092;2023-05-02T15:06:12;15.00;73.20
46458;DHT22;32155;54.076;12.092;2023-05-02T15:08:38;14.70;72.50
46458;DHT22;32155;54.076;12.092;2023-05-02T15:11:07;14.60;72.60
46458;DHT22;32155;54.076;12.092;2023-05-02T15:13:36;14.20;73.30
46458;DHT22;32155;54.076;12.092;2023-05-02T15:16:02;14.00;75.50
46458;DHT22;32155;54.076;12.092;2023-05-02T15:18:28;14.10;74.70
46458;DHT22;32155;54.076;12.092;2023-05-02T15:20:56;13.90;75.10
46458;DHT22;32155;54.076;12.092;2023-05-02T15:23:26;13.90;74.50
46458;DHT22;32155;54.076;12.092;2023-05-02T15:25:57;14.00;74.70
46458;DHT22;32155;54.076;12.092;2023-05-02T15:28:32;13.90;75.10
46458;DHT22;32155;54.076;12.092;2023-05-02T15:30:57;13.70;76.60
46458;DHT22;32155;54.076;12.092;2023-05-02T15:33:25;13.70;76.40
46458;DHT22;32155;54.076;12.092;2023-05-02T15:35:53;13.80;76.90
46458;DHT22;32155;54.076;12.092;2023-05-02T15:38:20;13.90;76.90
46458;DHT22;32155;54.076;12.092;2023-05-02T15:40:53;13.90;76.70
46458;DHT22;32155;54.076;12.092;2023-05-02T15:43:20;13.70;76.90
46458;DHT22;32155;54.076;12.092;2023-05-02T15:46:05;13.60;76.10
46458;DHT22;32155;54.076;12.092;2023-05-02T15:48:32;13.50;76.10
46458;DHT22;32155;54.076;12.092;2023-05-02T15:51:01;13.60;76.60
46458;DHT22;32155;54.076;12.092;2023-05-02T15:53:30;13.60;76.40
46458;DHT22;32155;54.076;12.092;2023-05-02T15:55:56;13.90;76.70
46458;DHT22;32155;54.076;12.092;2023-05-02T15:58:33;13.70;76.60
46458;DHT22;32155;54.076;12.092;2023-05-02T16:01:01;13.60;77.70
46458;DHT22;32155;54.076;12.092;2023-05-02T16:03:31;13.60;78.30
46458;DHT22;32155;54.076;12.092;2023-05-02T16:06:01;13.40;78.20
46458;DHT22;32155;54.076;12.092;2023-05-02T16:08:30;13.30;79.40
46458;DHT22;32155;54.076;12.092;2023-05-02T16:10:56;13.30;79.70
46458;DHT22;32155;54.076;12.092;2023-05-02T16:13:25;13.20;79.00
46458;DHT22;32155;54.076;12.092;2023-05-02T16:15:50;13.30;80.20
46458;DHT22;32155;54.076;12.092;2023-05-02T16:18:22;13.20;81.00
46458;DHT22;32155;54.076;12.092;2023-05-02T16:20:55;13.30;81.30
46458;DHT22;32155;54.076;12.092;2023-05-02T16:23:25;13.30;82.50
46458;DHT22;32155;54.076;12.092;2023-05-02T16:25:58;13.30;81.60
46458;DHT22;32155;54.076;12.092;2023-05-02T16:28:26;13.20;81.50
46458;DHT22;32155;54.076;12.092;2023-05-02T16:30:52;13.00;81.90
46458;DHT22;32155;54.076;12.092;2023-05-02T16:33:17;13.00;82.60
46458;DHT22;32155;54.076;12.092;2023-05-02T16:35:43;13.00;82.50
46458;DHT22;32155;54.076;12.092;2023-05-02T16:38:10;12.90;82.80
46458;DHT22;32155;54.076;12.092;2023-05-02T16:40:36;12.80;82.60
46458;DHT22;32155;54.076;12.092;2023-05-02T16:43:04;12.60;83.90
46458;DHT22;32155;54.076;12.092;2023-05-02T16:45:29;12.40;84.70
46458;DHT22;32155;54.076;12.092;2023-05-02T16:47:55;12.30;85.00
46458;DHT22;32155;54.076;12.092;2023-05-02T16:50:23;12.40;86.10
46458;DHT22;32155;54.076;12.092;2023-05-02T16:52:49;12.40;86.50
46458;DHT22;32155;54.076;12.092;2023-05-02T16:55:15;12.50;86.20
46458;DHT22;32155;54.076;12.092;2023-05-02T16:57:45;12.50;87.10
46458;DHT22;32155;54.076;12.092;2023-05-02T17:00:11;12.40;86.50
46458;DHT22;32155;54.076;12.092;2023-05-02T17:02:39;12.30;86.30
46458;DHT22;32155;54.076;12.092;2023-05-02T17:05:06;12.20;87.30
46458;DHT22;32155;54.076;12.092;2023-05-02T17:07:33;12.10;88.20
46458;DHT22;32155;54.076;12.092;2023-05-02T17:10:01;12.10;88.40
46458;DHT22;32155;54.076;12.092;2023-05-02T17:12:28;11.90;89.70
46458;DHT22;32155;54.076;12.092;2023-05-02T17:14:56;11.80;90.10
46458;DHT22;32155;54.076;12.092;2023-05-02T17:17:25;11.80;90.20
46458;DHT22;32155;54.076;12.092;2023-05-02T17:19:51;11.70;90.60
46458;DHT22;32155;54.076;12.092;2023-05-02T17:22:17;11.80;91.00
46458;DHT22;32155;54.076;12.092;2023-05-02T17:24:43;11.70;90.80
46458;DHT22;32155;54.076;12.092;2023-05-02T17:27:13;11.60;91.20
46458;DHT22;32155;54.076;12.092;2023-05-02T17:29:39;11.50;91.40
46458;DHT22;32155;54.076;12.092;2023-05-02T17:32:05;11.40;91.90
46458;DHT22;32155;54.076;12.092;2023-05-02T17:34:33;11.40;92.20
46458;DHT22;32155;54.076;12.092;2023-05-02T17:37:03;11.30;92.70
46458;DHT22;32155;54.076;12.092;2023-05-02T17:39:33;11.30;92.90
46458;DHT22;32155;54.076;12.092;2023-05-02T17:42:01;11.20;93.30
46458;DHT22;32155;54.076;12.092;2023-05-02T17:44:29;11.20;93.80
46458;DHT22;32155;54.076;12.092;2023-05-02T17:47:08;11.20;94.20
46458;DHT22;32155;54.076;12.092;2023-05-02T17:49:37;11.10;94.60
46458;DHT22;32155;54.076;12.092;2023-05-02T17:52:03;11.00;95.20
46458;DHT22;32155;54.076;12.092;2023-05-02T17:54:37;10.90;95.70
46458;DHT22;32155;54.076;12.092;2023-05-02T17:57:04;10.90;96.10
46458;DHT22;32155;54.076;12.092;2023-05-02T17:59:30;10.80;96.80
46458;DHT22;32155;54.076;12.092;2023-05-02T18:01:56;10.80;97.20
46458;DHT22;32155;54.076;12.092;2023-05-02T18:04:22;10.60;97.90
46458;DHT22;32155;54.076;12.092;2023-05-02T18:06:49;10.60;98.50
46458;DHT22;32155;54.076;12.092;2023-05-02T18:09:15;10.50;99.20
46458;DHT22;32155;54.076;12.092;2023-05-02T18:11:43;10.40;99.90
46458;DHT22;32155;54.076;12.092;2023-05-02T18:14:10;10.40;99.90
46458;DHT22;32155;54.076;12.092;2023-05-02T18:16:36;10.30;99.90
46458;DHT22;32155;54.076;12.092;2023-05-02T18:19:02;10.20;99.90
46458;DHT22;32155;54.076;12.092;2023-05-02T18:21:28;10.20;99.90
46458;DHT22;32155;54.076;12.092;2023-05-02T18:23:57;10.10;99.90
46458;DHT22;32155;54.076;12.092;2023-05-02T18:26:22;10.00;99.90
46458;DHT22;32155;54.076;12.092;2023-05-02T18:28:48;10.10;99.90
46458;DHT22;32155;54.076;12.092;2023-05-02T18:31:18;10.00;99.90
46458;DHT22;32155;54.076;12.092;2023-05-02T18:33:44;9.90;99.90
46458;DHT22;32155;54.076;12.092;2023-05-02T18:36:11;9.90;99.90
46458;DHT22;32155;54.076;12.092;2023-05-02T18:38:37;9.80;99.90
46458;DHT22;32155;54.076;12.092;2023-05-02T18:41:04;9.70;99.90
46458;DHT22;32155;54.076;12.092;2023-05-02T18:43:31;9.60;99.90
46458;DHT22;32155;54.076;12.092;2023-05-02T18:45:57;9.60;99.90
46458;DHT22;32155;54.076;12.092;2023-05-02T18:48:23;9.50;99.90
46458;DHT22;32155;54.076;12.092;2023-05-02T18:50:57;9.40;99.90
46458;DHT22;32155;54.076;12.092;2023-05-02T18:53:23;9.40;99.90
46458;DHT22;32155;54.076;12.092;2023-05-02T18:55:55;9.30;99.90
46458;DHT22;32155;54.076;12.092;2023-05-02T18:58:23;9.20;99.90
46458;DHT22;32155;54.076;12.092;2023-05-02T19:00:51;9.20;99.90
46458;DHT22;32155;54.076;12.092;2023-05-02T19:03:20;9.20;99.90
46458;DHT22;32155;54.076;12.092;2023-05-02T19:05:46;9.10;99.90
46458;DHT22;32155;54.076;12.092;2023-05-02T19:08:21;9.10;99.90
46458;DHT22;32155;54.076;12.092;2023-05-02T19:10:47;9.00;99.90
46458;DHT22;32155;54.076;12.092;2023-05-02T19:13:15;9.00;99.90
46458;DHT22;32155;54.076;12.092;2023-05-02T19:15:41;8.80;99.90
46458;DHT22;32155;54.076;12.092;2023-05-02T19:18:07;8.80;99.90
46458;DHT22;32155;54.076;12.092;2023-05-02T19:20:36;8.80;99.90